Bei Facebook empfehlenBei Twitter postenGoogle plusPinterest

Das Wetter im Erzgebirge am 30.04.2016

Wetter und Klima am 30.04.2016 Holzhau im Erzgebirge (630m ü.NN)
Letzte gemessene Temperatur und Uhrzeit der Messung23:45:00 Uhr2.20 °C
Temperatur (Maximum / Höchstwert) und Uhrzeit der Messung15:15:00 Uhr17.20 °C
Temperatur (Minimum / Tiefstwert) und Uhrzeit der Messung00:15:00-0.90 °C
Errechneter Absolutwert der Temperaturschwankungen zwischen Tmin und Tmax des Tages18.10 K
Errechnete Tagesmitteltemperatur8.39688 °C
Gesamt - Niederschlag des Tages (in flüssiger Form)3.11 Liter / m²
Luftdruck (Maximum / Höchstwert) und Zeitpunkt der Messung00:15:00 Uhr1014.80 hPa
Luftdruck (Minimum / Tiefstwert) und Zeitpunkt der Messung18:15:00 Uhr1012.90 hPa
Errechneter Absolutwert der Luftdruckschwankungen des Tages1.90 hPa
Höchste gemessene Windgeschwindigkeit und Uhrzeit der Messung23:45:00 Uhr0.00 km/h
Errechnete Windhäufigkeit in Relation zu den Messwerten des Tages0.00000 %
Niedrigste Windkühle (Windchill) und Zeitpunkt der Messung00:15:00 Uhr-0.90 °C
Taupunkt (Maximum / Höchstwert) und Uhrzeit der Messung12:30:00 Uhr3.40 °C
Taupunkt (Minimum / Tiefstwert) und Uhrzeit der Messung00:15:00-4.50 °C
Anzahl der automatisch eingelesenen Messwerte 96

Detaillierte Wetter- und Klima- Messwerte für den 30.04.2016 in Holzhau im Erzgebirge (630m ü.NN)
ZeitTemperaturLuftdruckRel. LuftfeuchteWindWindrichtungWindchillTaupunktNiederschlag l/m²
23:45:002.20 °C1013.50 hPa76.00 %-1.60 °C3.11
23:30:002.40 °C1013.40 hPa75.00 %-1.60 °C3.11
23:15:002.70 °C1013.30 hPa75.00 %-1.30 °C3.11
23:00:002.70 °C1013.20 hPa74.00 %-1.50 °C3.11
22:45:002.90 °C1013.10 hPa73.00 %-1.50 °C3.11
22:30:003.30 °C1013.10 hPa72.00 %-1.30 °C3.11
22:15:003.60 °C1013.30 hPa71.00 %-1.20 °C3.11
22:00:003.80 °C1013.20 hPa71.00 %-1.00 °C3.11
21:45:003.90 °C1013.20 hPa70.00 %-1.10 °C3.11
21:30:004.10 °C1013.30 hPa69.00 %-1.10 °C3.11
21:15:004.30 °C1013.30 hPa68.00 %-1.10 °C3.11
21:00:004.60 °C1013.20 hPa66.00 %-1.20 °C3.11
20:45:005.00 °C1013.40 hPa65.00 %-1.00 °C3.11
20:30:005.30 °C1013.30 hPa64.00 %-0.90 °C3.11
20:15:005.60 °C1013.30 hPa63.00 %-0.90 °C3.11
20:00:006.00 °C1013.20 hPa61.00 %-0.90 °C3.11
19:45:006.60 °C1013.20 hPa59.00 %-0.80 °C3.11
19:30:007.40 °C1013.20 hPa56.00 %-0.80 °C3.11
19:15:008.50 °C1013.10 hPa53.00 %-0.50 °C3.11
19:00:009.80 °C1013.20 hPa50.00 %-0.10 °C3.11
18:45:0011.50 °C1013.20 hPa46.00 %0.30 °C3.11
18:30:0013.20 °C1013.00 hPa41.00 %0.30 °C3.11
18:15:0013.90 °C1012.90 hPa39.00 %0.20 °C3.11
18:00:0014.30 °C1013.10 hPa38.00 %0.20 °C3.11
17:45:0014.60 °C1013.00 hPa38.00 %0.50 °C3.11
17:30:0014.90 °C1012.90 hPa38.00 %0.70 °C3.11
17:15:0014.90 °C1013.00 hPa38.00 %0.70 °C3.11
17:00:0015.40 °C1013.00 hPa40.00 %1.90 °C 
16:45:0015.10 °C1013.00 hPa40.00 %1.60 °C 
16:30:0015.00 °C1012.90 hPa39.00 %1.20 °C 
16:15:0015.60 °C1013.00 hPa38.00 %1.30 °C 
16:00:0016.20 °C1013.10 hPa39.00 %2.20 °C 
15:45:0016.00 °C1013.00 hPa39.00 %2.10 °C 
15:30:0016.30 °C1013.00 hPa38.00 %2.00 °C 
15:15:0017.20 °C1012.90 hPa39.00 %3.10 °C 
15:00:0017.00 °C1013.00 hPa39.00 %3.00 °C 
14:45:0016.50 °C1013.00 hPa39.00 %2.50 °C 
14:30:0016.40 °C1012.90 hPa39.00 %2.40 °C 
14:15:0016.40 °C1013.00 hPa38.00 %2.10 °C 
14:00:0016.50 °C1013.20 hPa39.00 %2.50 °C 
13:45:0016.50 °C1013.20 hPa39.00 %2.50 °C 
13:30:0016.60 °C1013.30 hPa39.00 %2.60 °C 
13:15:0016.60 °C1013.40 hPa41.00 %3.30 °C 
13:00:0016.20 °C1013.50 hPa40.00 %2.60 °C 
12:45:0015.80 °C1013.50 hPa42.00 %2.90 °C 
12:30:0015.60 °C1013.70 hPa44.00 %3.40 °C 
12:15:0015.20 °C1014.00 hPa45.00 %3.40 °C 
12:00:0014.80 °C1013.90 hPa44.00 %2.70 °C 
11:45:0014.80 °C1013.60 hPa45.00 %3.00 °C 
11:30:0014.30 °C1013.80 hPa45.00 %2.50 °C 
11:15:0014.30 °C1014.10 hPa45.00 %2.50 °C 
11:00:0014.20 °C1014.10 hPa44.00 %2.10 °C 
10:45:0013.90 °C1014.20 hPa45.00 %2.20 °C 
10:30:0013.60 °C1014.30 hPa45.00 %1.90 °C 
10:15:0013.50 °C1014.50 hPa46.00 %2.10 °C 
10:00:0013.50 °C1014.40 hPa47.00 %2.40 °C 
09:45:0012.90 °C1014.30 hPa46.00 %1.60 °C 
09:30:0012.90 °C1014.20 hPa47.00 %1.90 °C 
09:15:0012.80 °C1014.30 hPa48.00 %2.10 °C 
09:00:0012.80 °C1014.40 hPa51.00 %2.90 °C 
08:45:0012.40 °C1014.40 hPa51.00 %2.60 °C 
08:30:0012.10 °C1014.40 hPa53.00 %2.80 °C 
08:15:0011.60 °C1014.50 hPa54.00 %2.60 °C 
08:00:0011.30 °C1014.50 hPa57.00 %3.10 °C 
07:45:0010.80 °C1014.40 hPa59.00 %3.10 °C 
07:30:0010.40 °C1014.40 hPa62.00 %3.40 °C 
07:15:009.60 °C1014.40 hPa65.00 %3.40 °C 
07:00:008.60 °C1014.30 hPa69.00 %3.20 °C 
06:45:007.30 °C1014.30 hPa73.00 %2.80 °C 
06:30:006.00 °C1014.30 hPa77.00 %2.30 °C 
06:15:004.00 °C1014.20 hPa79.00 %0.70 °C 
06:00:002.40 °C1014.20 hPa80.00 %-0.70 °C 
05:45:002.00 °C1014.30 hPa80.00 %-1.10 °C 
05:30:001.30 °C1014.30 hPa80.00 %-1.80 °C 
05:15:000.90 °C1014.20 hPa80.00 %-2.10 °C 
05:00:000.90 °C1014.20 hPa80.00 %-2.10 °C 
04:45:001.10 °C1014.10 hPa80.00 %-2.00 °C 
04:30:001.10 °C1014.20 hPa80.00 %-2.00 °C 
04:15:000.90 °C1014.20 hPa80.00 %-2.10 °C 
04:00:000.40 °C1014.20 hPa80.00 %-2.60 °C 
03:45:000.50 °C1014.20 hPa80.00 %-2.50 °C 
03:30:000.40 °C1014.10 hPa80.00 %-2.60 °C 
03:15:000.80 °C1014.20 hPa79.00 %-2.40 °C 
03:00:000.80 °C1014.10 hPa80.00 %-2.20 °C 
02:45:000.90 °C1014.20 hPa81.00 %-2.00 °C 
02:30:000.50 °C1014.30 hPa81.00 %-2.40 °C 
02:15:000.20 °C1014.20 hPa82.00 %-2.50 °C 
02:00:00-0.10 °C1014.20 hPa81.00 %-3.30 °C 
01:45:00-0.40 °C1014.30 hPa81.00 %-3.60 °C 
01:30:00-0.60 °C1014.30 hPa81.00 %-3.80 °C 
01:15:00-0.50 °C1014.30 hPa81.00 %-3.70 °C 
01:00:00-0.60 °C1014.40 hPa81.00 %-3.80 °C 
00:45:00-0.80 °C1014.70 hPa80.00 %-4.20 °C 
00:30:00-0.80 °C1014.70 hPa80.00 %-4.20 °C 
00:15:00-0.90 °C1014.80 hPa79.00 %-4.50 °C 
00:00:00-0.80 °C1014.70 hPa79.00 %-4.40 °C 

Permanenter Link zu dieser Seite: Wetter im Erzgebirge am 30.04.2016
Performance-Info: Die Erstellung der Seite / Statistik(en) / Tabelle(n) erforderte 5 Datenbankserver-Abfrage(n) und dauerte 99 Millisekunden. (Dieser Messwert ist von der Gesamt-Auslastung des Servers abhängig.)
Erzgebirge - Wetter | Erzgebirge - Wetter (Mobilgeräte) | Komplette Klimadatenbank